sensor_id;sensor_type;location;lat;lon;timestamp;P1;durP1;ratioP1;P2;durP2;ratioP2
50884;SDS011;36865;-33.406;-70.534;2022-10-04T00:01:42;6.13;;;3.10;;
50884;SDS011;36865;-33.406;-70.534;2022-10-04T00:04:22;3.70;;;2.70;;
50884;SDS011;36865;-33.406;-70.534;2022-10-04T00:06:58;4.05;;;2.67;;
50884;SDS011;36865;-33.406;-70.534;2022-10-04T00:09:31;2.90;;;2.20;;
50884;SDS011;36865;-33.406;-70.534;2022-10-04T00:12:13;4.45;;;2.60;;
50884;SDS011;36865;-33.406;-70.534;2022-10-04T00:15:04;6.22;;;3.03;;
50884;SDS011;36865;-33.406;-70.534;2022-10-04T00:17:32;4.20;;;2.63;;
50884;SDS011;36865;-33.406;-70.534;2022-10-04T00:20:03;3.92;;;2.42;;
50884;SDS011;36865;-33.406;-70.534;2022-10-04T00:25:54;3.28;;;2.10;;
50884;SDS011;36865;-33.406;-70.534;2022-10-04T00:33:46;2.15;;;1.73;;
50884;SDS011;36865;-33.406;-70.534;2022-10-04T00:47:53;2.92;;;2.05;;
50884;SDS011;36865;-33.406;-70.534;2022-10-04T00:52:41;3.20;;;2.22;;
50884;SDS011;36865;-33.406;-70.534;2022-10-04T00:55:23;4.80;;;2.53;;
50884;SDS011;36865;-33.406;-70.534;2022-10-04T00:57:50;3.50;;;2.30;;
50884;SDS011;36865;-33.406;-70.534;2022-10-04T01:00:23;2.42;;;1.92;;
50884;SDS011;36865;-33.406;-70.534;2022-10-04T01:02:52;3.58;;;2.30;;
50884;SDS011;36865;-33.406;-70.534;2022-10-04T01:05:33;5.35;;;3.00;;
50884;SDS011;36865;-33.406;-70.534;2022-10-04T01:08:10;3.65;;;2.70;;
50884;SDS011;36865;-33.406;-70.534;2022-10-04T01:10:46;4.03;;;2.70;;
50884;SDS011;36865;-33.406;-70.534;2022-10-04T01:13:20;4.53;;;2.50;;
50884;SDS011;36865;-33.406;-70.534;2022-10-04T01:16:03;3.83;;;2.50;;
50884;SDS011;36865;-33.406;-70.534;2022-10-04T01:18:50;3.88;;;2.50;;
50884;SDS011;36865;-33.406;-70.534;2022-10-04T01:23:52;3.40;;;2.20;;
50884;SDS011;36865;-33.406;-70.534;2022-10-04T01:26:41;3.95;;;2.50;;
50884;SDS011;36865;-33.406;-70.534;2022-10-04T01:31:46;3.67;;;2.55;;
50884;SDS011;36865;-33.406;-70.534;2022-10-04T01:34:14;3.50;;;2.30;;
50884;SDS011;36865;-33.406;-70.534;2022-10-04T01:36:45;3.95;;;2.47;;
50884;SDS011;36865;-33.406;-70.534;2022-10-04T01:39:13;4.22;;;2.50;;
50884;SDS011;36865;-33.406;-70.534;2022-10-04T01:44:20;2.97;;;2.35;;
50884;SDS011;36865;-33.406;-70.534;2022-10-04T01:46:51;3.10;;;2.25;;
50884;SDS011;36865;-33.406;-70.534;2022-10-04T01:49:20;3.78;;;2.35;;
50884;SDS011;36865;-33.406;-70.534;2022-10-04T01:51:55;3.90;;;2.40;;
50884;SDS011;36865;-33.406;-70.534;2022-10-04T01:57:47;3.78;;;2.63;;
50884;SDS011;36865;-33.406;-70.534;2022-10-04T02:00:27;2.90;;;2.28;;
50884;SDS011;36865;-33.406;-70.534;2022-10-04T02:02:55;3.67;;;2.50;;
50884;SDS011;36865;-33.406;-70.534;2022-10-04T02:06:02;3.38;;;2.30;;
50884;SDS011;36865;-33.406;-70.534;2022-10-04T02:08:23;3.60;;;2.20;;
50884;SDS011;36865;-33.406;-70.534;2022-10-04T02:10:52;4.10;;;2.30;;
50884;SDS011;36865;-33.406;-70.534;2022-10-04T02:13:20;2.83;;;2.13;;
50884;SDS011;36865;-33.406;-70.534;2022-10-04T02:15:48;2.28;;;2.08;;
50884;SDS011;36865;-33.406;-70.534;2022-10-04T02:18:18;2.05;;;1.70;;
50884;SDS011;36865;-33.406;-70.534;2022-10-04T02:23:12;2.40;;;1.88;;
50884;SDS011;36865;-33.406;-70.534;2022-10-04T02:25:42;3.13;;;1.92;;
50884;SDS011;36865;-33.406;-70.534;2022-10-04T02:28:09;3.60;;;2.40;;
50884;SDS011;36865;-33.406;-70.534;2022-10-04T02:30:39;3.33;;;2.15;;
50884;SDS011;36865;-33.406;-70.534;2022-10-04T02:33:07;6.95;;;3.40;;
50884;SDS011;36865;-33.406;-70.534;2022-10-04T02:35:44;9.80;;;4.40;;
50884;SDS011;36865;-33.406;-70.534;2022-10-04T02:40:39;12.00;;;6.18;;
50884;SDS011;36865;-33.406;-70.534;2022-10-04T02:46:15;8.65;;;4.22;;
50884;SDS011;36865;-33.406;-70.534;2022-10-04T02:48:46;6.65;;;3.85;;
50884;SDS011;36865;-33.406;-70.534;2022-10-04T02:57:18;5.40;;;3.15;;
50884;SDS011;36865;-33.406;-70.534;2022-10-04T02:59:46;6.40;;;3.60;;
50884;SDS011;36865;-33.406;-70.534;2022-10-04T03:02:23;5.00;;;3.05;;
50884;SDS011;36865;-33.406;-70.534;2022-10-04T03:04:55;5.15;;;2.92;;
50884;SDS011;36865;-33.406;-70.534;2022-10-04T03:07:31;4.97;;;2.78;;
50884;SDS011;36865;-33.406;-70.534;2022-10-04T03:09:59;3.88;;;2.58;;
50884;SDS011;36865;-33.406;-70.534;2022-10-04T03:12:26;5.05;;;2.95;;
50884;SDS011;36865;-33.406;-70.534;2022-10-04T03:14:53;4.95;;;2.78;;
50884;SDS011;36865;-33.406;-70.534;2022-10-04T03:17:23;4.20;;;2.70;;
50884;SDS011;36865;-33.406;-70.534;2022-10-04T03:19:50;3.95;;;2.53;;
50884;SDS011;36865;-33.406;-70.534;2022-10-04T03:22:17;4.35;;;2.50;;
50884;SDS011;36865;-33.406;-70.534;2022-10-04T03:24:45;3.88;;;2.50;;
50884;SDS011;36865;-33.406;-70.534;2022-10-04T03:27:15;5.03;;;2.75;;
50884;SDS011;36865;-33.406;-70.534;2022-10-04T03:29:49;5.03;;;2.85;;
50884;SDS011;36865;-33.406;-70.534;2022-10-04T03:32:16;4.60;;;2.58;;
50884;SDS011;36865;-33.406;-70.534;2022-10-04T03:37:53;5.32;;;2.90;;
50884;SDS011;36865;-33.406;-70.534;2022-10-04T03:40:23;3.72;;;2.50;;
50884;SDS011;36865;-33.406;-70.534;2022-10-04T03:42:53;4.22;;;2.70;;
50884;SDS011;36865;-33.406;-70.534;2022-10-04T03:47:55;3.20;;;2.47;;
50884;SDS011;36865;-33.406;-70.534;2022-10-04T03:50:27;4.13;;;2.50;;
50884;SDS011;36865;-33.406;-70.534;2022-10-04T03:52:56;3.45;;;2.50;;
50884;SDS011;36865;-33.406;-70.534;2022-10-04T03:55:36;3.05;;;2.25;;
50884;SDS011;36865;-33.406;-70.534;2022-10-04T03:58:10;4.72;;;2.60;;
50884;SDS011;36865;-33.406;-70.534;2022-10-04T04:00:41;3.10;;;2.17;;
50884;SDS011;36865;-33.406;-70.534;2022-10-04T04:03:29;3.88;;;2.42;;
50884;SDS011;36865;-33.406;-70.534;2022-10-04T04:06:13;3.00;;;2.30;;
50884;SDS011;36865;-33.406;-70.534;2022-10-04T04:08:41;3.47;;;2.40;;
50884;SDS011;36865;-33.406;-70.534;2022-10-04T04:11:13;3.92;;;2.25;;
50884;SDS011;36865;-33.406;-70.534;2022-10-04T04:13:53;3.03;;;2.10;;
50884;SDS011;36865;-33.406;-70.534;2022-10-04T04:16:28;2.88;;;1.85;;
50884;SDS011;36865;-33.406;-70.534;2022-10-04T04:18:58;3.47;;;2.25;;
50884;SDS011;36865;-33.406;-70.534;2022-10-04T04:21:26;2.35;;;1.90;;
50884;SDS011;36865;-33.406;-70.534;2022-10-04T04:23:57;2.22;;;1.85;;
50884;SDS011;36865;-33.406;-70.534;2022-10-04T04:26:34;3.08;;;2.05;;
50884;SDS011;36865;-33.406;-70.534;2022-10-04T04:31:46;2.88;;;2.03;;
50884;SDS011;36865;-33.406;-70.534;2022-10-04T04:34:19;4.13;;;2.58;;
50884;SDS011;36865;-33.406;-70.534;2022-10-04T04:37:10;2.67;;;2.05;;
50884;SDS011;36865;-33.406;-70.534;2022-10-04T04:39:38;3.65;;;2.53;;
50884;SDS011;36865;-33.406;-70.534;2022-10-04T04:42:13;3.15;;;2.15;;
50884;SDS011;36865;-33.406;-70.534;2022-10-04T04:47:25;5.05;;;3.10;;
50884;SDS011;36865;-33.406;-70.534;2022-10-04T04:52:51;4.97;;;3.03;;
50884;SDS011;36865;-33.406;-70.534;2022-10-04T04:55:22;4.72;;;3.00;;
50884;SDS011;36865;-33.406;-70.534;2022-10-04T04:57:50;6.00;;;3.15;;
50884;SDS011;36865;-33.406;-70.534;2022-10-04T05:00:21;6.57;;;3.30;;
50884;SDS011;36865;-33.406;-70.534;2022-10-04T05:03:02;5.13;;;3.00;;
50884;SDS011;36865;-33.406;-70.534;2022-10-04T05:05:33;5.97;;;3.00;;
50884;SDS011;36865;-33.406;-70.534;2022-10-04T05:10:37;7.10;;;3.58;;
50884;SDS011;36865;-33.406;-70.534;2022-10-04T05:13:10;6.50;;;3.28;;
50884;SDS011;36865;-33.406;-70.534;2022-10-04T05:15:39;5.75;;;3.00;;
50884;SDS011;36865;-33.406;-70.534;2022-10-04T05:20:51;9.02;;;4.40;;
50884;SDS011;36865;-33.406;-70.534;2022-10-04T05:23:18;10.30;;;4.88;;
50884;SDS011;36865;-33.406;-70.534;2022-10-04T05:25:45;11.57;;;5.65;;
50884;SDS011;36865;-33.406;-70.534;2022-10-04T05:28:13;13.35;;;5.63;;
50884;SDS011;36865;-33.406;-70.534;2022-10-04T05:30:46;11.13;;;5.30;;
50884;SDS011;36865;-33.406;-70.534;2022-10-04T05:33:57;10.00;;;4.90;;
50884;SDS011;36865;-33.406;-70.534;2022-10-04T05:36:30;10.55;;;5.25;;
50884;SDS011;36865;-33.406;-70.534;2022-10-04T05:39:24;12.10;;;5.68;;
50884;SDS011;36865;-33.406;-70.534;2022-10-04T05:46:55;9.48;;;4.40;;
50884;SDS011;36865;-33.406;-70.534;2022-10-04T05:49:24;8.52;;;4.38;;
50884;SDS011;36865;-33.406;-70.534;2022-10-04T05:54:23;7.97;;;4.05;;
50884;SDS011;36865;-33.406;-70.534;2022-10-04T06:02:40;9.75;;;4.50;;
50884;SDS011;36865;-33.406;-70.534;2022-10-04T06:19:49;11.70;;;5.57;;
50884;SDS011;36865;-33.406;-70.534;2022-10-04T06:22:46;10.95;;;5.25;;
50884;SDS011;36865;-33.406;-70.534;2022-10-04T06:25:36;9.90;;;4.70;;
50884;SDS011;36865;-33.406;-70.534;2022-10-04T06:36:27;11.15;;;5.28;;
50884;SDS011;36865;-33.406;-70.534;2022-10-04T06:39:25;12.73;;;6.13;;
50884;SDS011;36865;-33.406;-70.534;2022-10-04T06:47:54;9.88;;;4.68;;
50884;SDS011;36865;-33.406;-70.534;2022-10-04T07:01:18;9.40;;;4.35;;
50884;SDS011;36865;-33.406;-70.534;2022-10-04T07:06:46;8.35;;;3.97;;
50884;SDS011;36865;-33.406;-70.534;2022-10-04T07:10:00;8.48;;;4.03;;
50884;SDS011;36865;-33.406;-70.534;2022-10-04T07:12:39;9.77;;;4.57;;
50884;SDS011;36865;-33.406;-70.534;2022-10-04T07:15:11;7.70;;;4.13;;
50884;SDS011;36865;-33.406;-70.534;2022-10-04T07:17:49;9.05;;;4.32;;
50884;SDS011;36865;-33.406;-70.534;2022-10-04T07:20:24;12.20;;;5.82;;
50884;SDS011;36865;-33.406;-70.534;2022-10-04T07:22:57;14.85;;;7.10;;
50884;SDS011;36865;-33.406;-70.534;2022-10-04T07:25:49;13.80;;;6.88;;
50884;SDS011;36865;-33.406;-70.534;2022-10-04T07:28:23;12.30;;;6.45;;
50884;SDS011;36865;-33.406;-70.534;2022-10-04T07:31:29;15.48;;;7.50;;
50884;SDS011;36865;-33.406;-70.534;2022-10-04T07:34:07;14.27;;;7.05;;
50884;SDS011;36865;-33.406;-70.534;2022-10-04T07:36:44;15.17;;;7.70;;
50884;SDS011;36865;-33.406;-70.534;2022-10-04T07:39:33;16.95;;;8.93;;
50884;SDS011;36865;-33.406;-70.534;2022-10-04T07:42:14;16.02;;;8.35;;
50884;SDS011;36865;-33.406;-70.534;2022-10-04T07:45:11;14.07;;;7.65;;
50884;SDS011;36865;-33.406;-70.534;2022-10-04T07:47:46;13.98;;;6.85;;
50884;SDS011;36865;-33.406;-70.534;2022-10-04T07:50:26;15.20;;;8.07;;
50884;SDS011;36865;-33.406;-70.534;2022-10-04T07:53:28;17.27;;;9.65;;
50884;SDS011;36865;-33.406;-70.534;2022-10-04T07:55:54;16.08;;;8.73;;
50884;SDS011;36865;-33.406;-70.534;2022-10-04T08:11:40;14.25;;;6.78;;
50884;SDS011;36865;-33.406;-70.534;2022-10-04T08:14:19;12.63;;;6.20;;
50884;SDS011;36865;-33.406;-70.534;2022-10-04T08:16:56;12.88;;;6.03;;
50884;SDS011;36865;-33.406;-70.534;2022-10-04T08:20:03;12.85;;;6.00;;
50884;SDS011;36865;-33.406;-70.534;2022-10-04T08:28:02;12.02;;;5.65;;
50884;SDS011;36865;-33.406;-70.534;2022-10-04T08:45:33;8.18;;;4.20;;
50884;SDS011;36865;-33.406;-70.534;2022-10-04T08:51:10;7.00;;;3.50;;
50884;SDS011;36865;-33.406;-70.534;2022-10-04T09:00:40;9.27;;;4.18;;
50884;SDS011;36865;-33.406;-70.534;2022-10-04T09:06:06;8.18;;;3.90;;
50884;SDS011;36865;-33.406;-70.534;2022-10-04T09:17:29;6.95;;;3.40;;
50884;SDS011;36865;-33.406;-70.534;2022-10-04T09:20:25;8.02;;;3.63;;
50884;SDS011;36865;-33.406;-70.534;2022-10-04T09:23:07;7.22;;;3.50;;
50884;SDS011;36865;-33.406;-70.534;2022-10-04T09:25:47;8.13;;;3.65;;
50884;SDS011;36865;-33.406;-70.534;2022-10-04T09:31:12;9.82;;;4.15;;
50884;SDS011;36865;-33.406;-70.534;2022-10-04T09:33:50;9.32;;;4.20;;
50884;SDS011;36865;-33.406;-70.534;2022-10-04T09:36:28;9.73;;;4.60;;
50884;SDS011;36865;-33.406;-70.534;2022-10-04T09:47:30;12.55;;;5.45;;
50884;SDS011;36865;-33.406;-70.534;2022-10-04T10:10:46;10.13;;;4.40;;
50884;SDS011;36865;-33.406;-70.534;2022-10-04T10:24:25;9.02;;;3.80;;
50884;SDS011;36865;-33.406;-70.534;2022-10-04T10:43:50;8.05;;;3.80;;
50884;SDS011;36865;-33.406;-70.534;2022-10-04T10:48:26;9.45;;;4.40;;
50884;SDS011;36865;-33.406;-70.534;2022-10-04T10:56:56;10.57;;;4.53;;
50884;SDS011;36865;-33.406;-70.534;2022-10-04T11:04:50;15.23;;;6.80;;
50884;SDS011;36865;-33.406;-70.534;2022-10-04T11:16:58;13.98;;;6.78;;
50884;SDS011;36865;-33.406;-70.534;2022-10-04T11:22:31;13.57;;;6.35;;
50884;SDS011;36865;-33.406;-70.534;2022-10-04T11:41:34;7.95;;;3.78;;
50884;SDS011;36865;-33.406;-70.534;2022-10-04T11:55:26;7.18;;;3.38;;
50884;SDS011;36865;-33.406;-70.534;2022-10-04T12:06:41;8.02;;;3.50;;
50884;SDS011;36865;-33.406;-70.534;2022-10-04T12:12:05;5.60;;;3.03;;
50884;SDS011;36865;-33.406;-70.534;2022-10-04T12:20:26;8.80;;;4.07;;
50884;SDS011;36865;-33.406;-70.534;2022-10-04T12:30:59;11.30;;;5.20;;
50884;SDS011;36865;-33.406;-70.534;2022-10-04T12:33:33;9.80;;;4.78;;
50884;SDS011;36865;-33.406;-70.534;2022-10-04T13:01:40;10.65;;;5.20;;
50884;SDS011;36865;-33.406;-70.534;2022-10-04T13:14:42;9.82;;;4.63;;
50884;SDS011;36865;-33.406;-70.534;2022-10-04T13:17:36;9.98;;;4.60;;
50884;SDS011;36865;-33.406;-70.534;2022-10-04T13:20:26;10.63;;;4.95;;
50884;SDS011;36865;-33.406;-70.534;2022-10-04T13:26:02;9.20;;;4.30;;
50884;SDS011;36865;-33.406;-70.534;2022-10-04T13:28:53;7.82;;;3.83;;
50884;SDS011;36865;-33.406;-70.534;2022-10-04T13:31:40;7.45;;;3.78;;
50884;SDS011;36865;-33.406;-70.534;2022-10-04T13:42:43;7.85;;;3.90;;
50884;SDS011;36865;-33.406;-70.534;2022-10-04T13:53:45;8.95;;;4.13;;
50884;SDS011;36865;-33.406;-70.534;2022-10-04T14:22:23;13.20;;;5.85;;
50884;SDS011;36865;-33.406;-70.534;2022-10-04T14:45:11;13.85;;;6.90;;
50884;SDS011;36865;-33.406;-70.534;2022-10-04T14:58:53;14.15;;;6.95;;
50884;SDS011;36865;-33.406;-70.534;2022-10-04T15:01:24;13.95;;;6.75;;
50884;SDS011;36865;-33.406;-70.534;2022-10-04T15:04:05;14.35;;;7.25;;
50884;SDS011;36865;-33.406;-70.534;2022-10-04T15:06:50;16.92;;;9.05;;
50884;SDS011;36865;-33.406;-70.534;2022-10-04T15:17:27;16.33;;;8.77;;
50884;SDS011;36865;-33.406;-70.534;2022-10-04T15:20:16;14.38;;;7.43;;
50884;SDS011;36865;-33.406;-70.534;2022-10-04T15:28:25;19.80;;;10.25;;
50884;SDS011;36865;-33.406;-70.534;2022-10-04T15:41:59;17.42;;;8.73;;
50884;SDS011;36865;-33.406;-70.534;2022-10-04T15:54:30;20.15;;;10.88;;
50884;SDS011;36865;-33.406;-70.534;2022-10-04T16:02:46;19.20;;;10.13;;
50884;SDS011;36865;-33.406;-70.534;2022-10-04T16:05:17;17.13;;;9.35;;
50884;SDS011;36865;-33.406;-70.534;2022-10-04T16:13:25;21.35;;;12.40;;
50884;SDS011;36865;-33.406;-70.534;2022-10-04T16:32:13;18.87;;;10.53;;
50884;SDS011;36865;-33.406;-70.534;2022-10-04T16:37:25;20.37;;;12.03;;
50884;SDS011;36865;-33.406;-70.534;2022-10-04T16:42:48;19.75;;;11.38;;
50884;SDS011;36865;-33.406;-70.534;2022-10-04T16:45:27;20.23;;;11.38;;
50884;SDS011;36865;-33.406;-70.534;2022-10-04T16:51:23;22.30;;;13.45;;
50884;SDS011;36865;-33.406;-70.534;2022-10-04T17:02:17;20.48;;;12.02;;
50884;SDS011;36865;-33.406;-70.534;2022-10-04T17:08:14;22.58;;;13.65;;
50884;SDS011;36865;-33.406;-70.534;2022-10-04T17:11:06;20.52;;;12.07;;
50884;SDS011;36865;-33.406;-70.534;2022-10-04T17:16:55;22.10;;;13.40;;
50884;SDS011;36865;-33.406;-70.534;2022-10-04T17:19:30;22.67;;;13.85;;
50884;SDS011;36865;-33.406;-70.534;2022-10-04T17:22:06;23.67;;;15.23;;
50884;SDS011;36865;-33.406;-70.534;2022-10-04T17:27:17;29.58;;;19.17;;
50884;SDS011;36865;-33.406;-70.534;2022-10-04T17:35:16;23.50;;;15.02;;
50884;SDS011;36865;-33.406;-70.534;2022-10-04T17:49:03;24.87;;;15.93;;
50884;SDS011;36865;-33.406;-70.534;2022-10-04T17:52:04;27.80;;;16.38;;
50884;SDS011;36865;-33.406;-70.534;2022-10-04T17:55:15;26.30;;;16.45;;
50884;SDS011;36865;-33.406;-70.534;2022-10-04T17:58:00;24.33;;;14.73;;
50884;SDS011;36865;-33.406;-70.534;2022-10-04T18:01:08;25.90;;;15.68;;
50884;SDS011;36865;-33.406;-70.534;2022-10-04T18:03:42;20.98;;;12.52;;
50884;SDS011;36865;-33.406;-70.534;2022-10-04T18:06:24;24.13;;;14.48;;
50884;SDS011;36865;-33.406;-70.534;2022-10-04T18:08:59;24.65;;;14.60;;
50884;SDS011;36865;-33.406;-70.534;2022-10-04T18:11:41;25.15;;;15.98;;
50884;SDS011;36865;-33.406;-70.534;2022-10-04T18:14:46;24.83;;;15.13;;
50884;SDS011;36865;-33.406;-70.534;2022-10-04T18:17:12;25.88;;;15.75;;
50884;SDS011;36865;-33.406;-70.534;2022-10-04T18:19:57;25.23;;;15.77;;
50884;SDS011;36865;-33.406;-70.534;2022-10-04T18:22:46;26.08;;;15.55;;
50884;SDS011;36865;-33.406;-70.534;2022-10-04T18:25:14;25.38;;;15.60;;
50884;SDS011;36865;-33.406;-70.534;2022-10-04T18:30:19;25.42;;;14.98;;
50884;SDS011;36865;-33.406;-70.534;2022-10-04T18:32:49;25.38;;;16.05;;
50884;SDS011;36865;-33.406;-70.534;2022-10-04T18:35:21;25.27;;;15.32;;
50884;SDS011;36865;-33.406;-70.534;2022-10-04T18:37:52;27.95;;;16.90;;
50884;SDS011;36865;-33.406;-70.534;2022-10-04T18:40:42;25.95;;;15.38;;
50884;SDS011;36865;-33.406;-70.534;2022-10-04T18:43:41;30.55;;;19.10;;
50884;SDS011;36865;-33.406;-70.534;2022-10-04T18:46:39;32.65;;;19.88;;
50884;SDS011;36865;-33.406;-70.534;2022-10-04T18:57:35;26.63;;;15.80;;
50884;SDS011;36865;-33.406;-70.534;2022-10-04T19:00:24;28.52;;;16.92;;
50884;SDS011;36865;-33.406;-70.534;2022-10-04T19:03:46;30.23;;;18.42;;
50884;SDS011;36865;-33.406;-70.534;2022-10-04T19:06:35;26.38;;;16.45;;
50884;SDS011;36865;-33.406;-70.534;2022-10-04T19:09:17;23.25;;;14.73;;
50884;SDS011;36865;-33.406;-70.534;2022-10-04T19:11:53;29.40;;;18.10;;
50884;SDS011;36865;-33.406;-70.534;2022-10-04T19:17:31;27.33;;;16.38;;
50884;SDS011;36865;-33.406;-70.534;2022-10-04T19:23:14;27.20;;;17.60;;
50884;SDS011;36865;-33.406;-70.534;2022-10-04T19:25:33;25.52;;;16.40;;
50884;SDS011;36865;-33.406;-70.534;2022-10-04T19:41:56;20.52;;;11.55;;
50884;SDS011;36865;-33.406;-70.534;2022-10-04T19:44:34;18.60;;;10.80;;
50884;SDS011;36865;-33.406;-70.534;2022-10-04T19:50:15;25.85;;;15.50;;
50884;SDS011;36865;-33.406;-70.534;2022-10-04T19:55:20;24.55;;;14.75;;
50884;SDS011;36865;-33.406;-70.534;2022-10-04T19:57:56;20.95;;;12.48;;
50884;SDS011;36865;-33.406;-70.534;2022-10-04T20:00:28;20.30;;;11.43;;
50884;SDS011;36865;-33.406;-70.534;2022-10-04T20:02:55;19.45;;;11.23;;
50884;SDS011;36865;-33.406;-70.534;2022-10-04T20:05:22;21.63;;;11.93;;
50884;SDS011;36865;-33.406;-70.534;2022-10-04T20:07:57;22.55;;;11.52;;
50884;SDS011;36865;-33.406;-70.534;2022-10-04T20:10:32;19.98;;;12.27;;
50884;SDS011;36865;-33.406;-70.534;2022-10-04T20:13:14;21.50;;;12.93;;
50884;SDS011;36865;-33.406;-70.534;2022-10-04T20:15:49;20.92;;;12.75;;
50884;SDS011;36865;-33.406;-70.534;2022-10-04T20:21:02;19.58;;;11.40;;
50884;SDS011;36865;-33.406;-70.534;2022-10-04T20:34:55;22.15;;;13.15;;
50884;SDS011;36865;-33.406;-70.534;2022-10-04T20:45:51;19.75;;;9.68;;
50884;SDS011;36865;-33.406;-70.534;2022-10-04T20:48:43;18.00;;;9.18;;
50884;SDS011;36865;-33.406;-70.534;2022-10-04T20:51:28;23.38;;;8.88;;
50884;SDS011;36865;-33.406;-70.534;2022-10-04T20:53:58;17.88;;;9.27;;
50884;SDS011;36865;-33.406;-70.534;2022-10-04T20:56:31;16.70;;;7.60;;
50884;SDS011;36865;-33.406;-70.534;2022-10-04T20:59:32;17.15;;;8.05;;
50884;SDS011;36865;-33.406;-70.534;2022-10-04T21:01:59;15.93;;;7.03;;
50884;SDS011;36865;-33.406;-70.534;2022-10-04T21:04:29;12.38;;;6.40;;
50884;SDS011;36865;-33.406;-70.534;2022-10-04T21:07:07;11.35;;;5.82;;
50884;SDS011;36865;-33.406;-70.534;2022-10-04T21:16:38;11.38;;;5.95;;
50884;SDS011;36865;-33.406;-70.534;2022-10-04T21:24:55;8.20;;;4.40;;
50884;SDS011;36865;-33.406;-70.534;2022-10-04T21:27:27;12.15;;;6.20;;
50884;SDS011;36865;-33.406;-70.534;2022-10-04T21:30:16;11.20;;;5.55;;
50884;SDS011;36865;-33.406;-70.534;2022-10-04T21:32:44;12.40;;;5.72;;
50884;SDS011;36865;-33.406;-70.534;2022-10-04T21:35:11;11.73;;;5.60;;
50884;SDS011;36865;-33.406;-70.534;2022-10-04T21:37:38;9.75;;;4.60;;
50884;SDS011;36865;-33.406;-70.534;2022-10-04T21:40:11;9.00;;;4.43;;
50884;SDS011;36865;-33.406;-70.534;2022-10-04T21:42:44;7.50;;;3.78;;
50884;SDS011;36865;-33.406;-70.534;2022-10-04T21:45:23;9.10;;;3.65;;
50884;SDS011;36865;-33.406;-70.534;2022-10-04T21:48:06;8.60;;;4.20;;
50884;SDS011;36865;-33.406;-70.534;2022-10-04T21:50:59;9.57;;;4.60;;
50884;SDS011;36865;-33.406;-70.534;2022-10-04T21:53:44;8.88;;;4.28;;
50884;SDS011;36865;-33.406;-70.534;2022-10-04T21:56:11;7.22;;;4.38;;
50884;SDS011;36865;-33.406;-70.534;2022-10-04T21:58:38;5.90;;;3.40;;
50884;SDS011;36865;-33.406;-70.534;2022-10-04T22:01:10;6.43;;;3.33;;
50884;SDS011;36865;-33.406;-70.534;2022-10-04T22:03:49;6.82;;;3.50;;
50884;SDS011;36865;-33.406;-70.534;2022-10-04T22:06:30;7.03;;;3.42;;
50884;SDS011;36865;-33.406;-70.534;2022-10-04T22:08:58;7.82;;;3.88;;
50884;SDS011;36865;-33.406;-70.534;2022-10-04T22:11:28;8.82;;;4.20;;
50884;SDS011;36865;-33.406;-70.534;2022-10-04T22:14:19;7.75;;;3.97;;
50884;SDS011;36865;-33.406;-70.534;2022-10-04T22:17:07;8.05;;;3.85;;
50884;SDS011;36865;-33.406;-70.534;2022-10-04T22:19:43;8.13;;;4.13;;
50884;SDS011;36865;-33.406;-70.534;2022-10-04T22:22:13;9.43;;;4.20;;
50884;SDS011;36865;-33.406;-70.534;2022-10-04T22:30:42;6.88;;;3.40;;
50884;SDS011;36865;-33.406;-70.534;2022-10-04T22:33:21;8.48;;;3.35;;
50884;SDS011;36865;-33.406;-70.534;2022-10-04T22:36:11;6.80;;;3.38;;
50884;SDS011;36865;-33.406;-70.534;2022-10-04T22:38:56;7.47;;;3.50;;
50884;SDS011;36865;-33.406;-70.534;2022-10-04T22:41:30;4.22;;;2.90;;
50884;SDS011;36865;-33.406;-70.534;2022-10-04T22:44:14;6.68;;;3.13;;
50884;SDS011;36865;-33.406;-70.534;2022-10-04T22:46:51;6.03;;;2.97;;
50884;SDS011;36865;-33.406;-70.534;2022-10-04T22:49:23;4.97;;;2.45;;
50884;SDS011;36865;-33.406;-70.534;2022-10-04T22:51:54;5.43;;;2.80;;
50884;SDS011;36865;-33.406;-70.534;2022-10-04T22:54:26;4.82;;;2.88;;
50884;SDS011;36865;-33.406;-70.534;2022-10-04T22:57:03;4.55;;;2.50;;
50884;SDS011;36865;-33.406;-70.534;2022-10-04T22:59:34;4.90;;;2.33;;
50884;SDS011;36865;-33.406;-70.534;2022-10-04T23:02:09;2.83;;;2.30;;
50884;SDS011;36865;-33.406;-70.534;2022-10-04T23:04:49;4.75;;;2.50;;
50884;SDS011;36865;-33.406;-70.534;2022-10-04T23:07:18;6.68;;;2.90;;
50884;SDS011;36865;-33.406;-70.534;2022-10-04T23:10:04;3.70;;;2.40;;
50884;SDS011;36865;-33.406;-70.534;2022-10-04T23:12:32;4.18;;;2.50;;
50884;SDS011;36865;-33.406;-70.534;2022-10-04T23:14:59;3.75;;;2.35;;
50884;SDS011;36865;-33.406;-70.534;2022-10-04T23:22:50;1.90;;;1.63;;
50884;SDS011;36865;-33.406;-70.534;2022-10-04T23:25:19;1.90;;;1.70;;
50884;SDS011;36865;-33.406;-70.534;2022-10-04T23:27:51;2.95;;;1.90;;
50884;SDS011;36865;-33.406;-70.534;2022-10-04T23:30:21;3.72;;;2.22;;
50884;SDS011;36865;-33.406;-70.534;2022-10-04T23:32:50;5.40;;;2.20;;
50884;SDS011;36865;-33.406;-70.534;2022-10-04T23:35:41;4.25;;;2.22;;
50884;SDS011;36865;-33.406;-70.534;2022-10-04T23:38:15;3.63;;;1.98;;
50884;SDS011;36865;-33.406;-70.534;2022-10-04T23:40:45;4.15;;;2.33;;
50884;SDS011;36865;-33.406;-70.534;2022-10-04T23:43:16;3.17;;;2.17;;
50884;SDS011;36865;-33.406;-70.534;2022-10-04T23:45:45;3.55;;;2.00;;
50884;SDS011;36865;-33.406;-70.534;2022-10-04T23:48:14;2.65;;;1.75;;
50884;SDS011;36865;-33.406;-70.534;2022-10-04T23:50:48;3.22;;;1.67;;
50884;SDS011;36865;-33.406;-70.534;2022-10-04T23:53:21;1.85;;;1.60;;
50884;SDS011;36865;-33.406;-70.534;2022-10-04T23:55:51;1.60;;;1.35;;
50884;SDS011;36865;-33.406;-70.534;2022-10-04T23:58:23;2.67;;;1.70;;
